Almeria, Nebraska
Current Conditions -  °F | °C
As of 8:53 PM on Monday 22 Dec 2014 (Local Time) from KBBW Reporting Station
Light Snow Light Snow  
Wind Chill: 23°   Ceiling: 2400
Heat Index: 34°   Visibility: 9mi
Dew Point: 30°   Wind: 18mph
Humidity: 85%   Direction: 340°NNW
Pressure: 29.54"   Gusts: 24mph
Location:  41.914°N, 99.4547°W
Report Text: KBBW 230253Z AUTO 34016G21KT 9SM -SN FEW014 BKN024 OVC047 01/M01 A2954 RMK AO2 PK WND 33029/0200 UPB06E10RAB10E11SNE06B31 SLP015 P0000 60001 T00111011 53004
Loading
Personal Weather Stations






























Interactive Weather Map New forecast layout! Learn more

10-Day Weather Forecast

Advertisements
Track Severe Weather on mobile